Potsdam, NY

44° 42' 44"N, 74° 57' 12"W, Elevation 460 ft.
Eastern Time

Hourly observations for the last 72 hours

Date Time Temperature (°F) Humi-
dity

(%)
Wind
(mph)
Pressure Rain (in) Sun
(W/m2)
ET
(in)
Air Dew 6 Hour 1 Hr 3 Hr 6 Hr Day
Alt
(in)
Sea
Level

(mb)
Max Min
26 06:00 53.6 52.8 97 SSW 0 G 2 29.96 1014.7 0.00 14 0.000
26 05:00 52.9 51.8 96 Calm 29.95 1014.3 0.00 0 0.000
26 04:00 53.6 52.8 97 SW 0 G 1 29.94 1014.0 0.00 0 0.000
26 03:00 53.4 52.3 96 W 1 G 4 29.94 1013.9 0.00 0 0.000
26 02:00 53.6 52.5 61.2 52.9 96 SW 0 G 5 29.94 1013.8 0.16 0.00 0 0.000
26 01:00 53.7 52.6 96 W 1 G 7 29.93 1013.5 0.00 0 0.000
26 00:00 53.0 51.6 95 S 1 G 5 29.92 1013.3 0.37 0 0.000
25 23:00 53.9 52.2 94 W 0 G 3 29.92 1013.3 0.12 0.16 0.37 0 0.108
25 22:00 56.7 54.1 91 WSW 1 G 6 29.93 1013.6 0.04 0.25 0 0.108
25 21:00 58.4 55.8 91 Calm 29.90 1012.4 0.21 0 0.108
25 20:00 61.2 56.7 72.2 61.2 85 Calm 29.90 1012.7 0.21 32 0.108
25 19:00 63.4 56.8 79 W 0 G 2 29.90 1012.6 0.21 83 0.107
25 18:00 65.4 58.4 78 WNW 2 G 9 29.89 1012.3 0.21 448 0.104
25 17:00 64.0 56.7 77 N 2 G 8 29.90 1012.6 0.21 149 0.095
25 16:00 71.8 52.7 51 WNW 10 G 21 29.87 1011.4 0.21 742 0.083
25 15:00 69.3 63.9 83 NNE 1 G 6 29.86 1011.3 0.21 962 0.067
25 14:00 69.2 63.8 71.3 60.9 83 NNW 2 G 20 29.87 1011.6 0.06 0.21 0.21 0.21 332 0.052
25 13:00 64.0 61.9 93 NW 0 G 6 29.87 1011.6 0.15 0.15 216 0.035
25 12:00 67.3 59.8 77 SW 1 G 4 29.88 1012.0 0.00 171 0.029
25 11:00 70.6 61.1 72 SW 2 G 5 29.90 1012.7 0.00 573 0.022
25 10:00 67.8 58.1 71 S 2 G 6 29.92 1013.2 0.00 387 0.009
25 09:00 64.8 59.5 83 SW 2 G 6 29.92 1013.2 0.00 70 0.003
25 08:00 60.9 58.9 60.9 54.8 93 SSW 1 G 5 29.91 1013.0 0.00 40 0.001
25 07:00 58.0 57.4 98 SSW 0 G 4 29.92 1013.3 0.00 32 0.000
25 06:00 55.5 54.7 97 S 0 G 4 29.90 1012.7 0.00 12 0.000
25 05:00 55.4 54.3 96 S 0 G 2 29.90 1012.4 0.00 0 0.000
25 04:00 55.8 54.7 96 S 0 G 4 29.89 1012.1 0.00 0 0.000
25 03:00 56.2 54.8 95 S 1 G 6 29.90 1012.4 0.00 0 0.000
25 02:00 56.4 55.0 71.0 56.4 95 S 0 G 2 29.88 1011.9 0.00 0 0.000
25 01:00 57.3 55.6 94 S 0 G 1 29.87 1011.5 0.00 0 0.000
25 00:00 59.0 57.3 94 S 0 G 4 29.86 1011.4 0.00 0 0.000
24 23:00 59.7 57.7 93 S 1 G 6 29.85 1010.9 0.00 0 0.069
24 22:00 60.0 57.7 92 SE 0 G 2 29.84 1010.6 0.00 0 0.069
24 21:00 63.8 57.9 81 NNE 1 G 9 29.80 1009.2 0.00 0 0.069
24 20:00 71.0 59.1 78.3 70.0 66 WSW 0 G 7 29.75 1007.3 0.00 9 0.068
24 19:00 73.0 58.3 60 W 2 G 17 29.72 1006.5 0.00 95 0.066
24 18:00 75.7 59.9 58 WNW 4 G 17 29.70 1005.8 0.00 424 0.061
24 17:00 76.1 59.3 56 W 2 G 17 29.69 1005.6 0.00 302 0.047
24 16:00 74.1 59.3 60 W 3 G 18 29.67 1004.8 0.00 243 0.030
24 15:00 78.1 63.1 60 WNW 5 G 15 29.65 1004.1 0.00 882 0.014
24 14:00 70.0 61.7 70.0 70.0 75 W 3 G 17 29.66 1004.4 0.00 12 0.000
24 13:00 70.0 61.7 75 WNW 4 G 12 29.65 1004.1 0.00 12 0.000
24 12:00 70.0 61.7 75 WNW 3 G 9 29.65 1004.0 0.00 12 0.000
24 11:00 70.0 61.7 75 WNW 1 G 9 29.64 1003.7 0.00 12 0.000
24 10:00 70.0 61.7 75 W 1 G 9 29.62 1003.1 0.00 12 0.000
24 09:00 70.0 61.7 75 W 2 G 8 29.61 1002.8 0.00 12 0.000
24 08:00 70.0 61.7 70.0 70.0 75 W 2 G 10 29.60 1002.5 0.00 12 0.000
24 07:00 70.0 61.7 75 Calm 29.58 1001.7 0.00 12 0.000
24 06:00 70.0 61.7 75 W 0 G 3 29.55 1000.8 0.00 12 0.000
24 05:00 70.0 61.7 75 WNW 2 G 9 29.52 999.7 0.00 12 0.000
24 04:00 70.0 61.7 75 NW 0 G 7 29.51 999.2 0.00 12 0.000
24 03:00 70.0 61.7 75 W 0 G 4 29.51 999.3 0.00 12 0.000
24 02:00 70.0 61.7 70.0 70.0 75 W 1 G 6 29.50 999.1 0.00 12 0.000
24 01:00 70.0 61.7 75 SW 0 G 7 29.50 999.0 0.00 12 0.000
24 00:00 70.0 61.7 75 W 0 G 4 29.50 999.1 0.00 12 0.000
23 23:00 70.0 61.7 75 SSW 1 G 4 29.51 999.3 0.00 12 0.000
23 22:00 70.0 61.7 75 SSW 0 G 5 29.51 999.5 0.00 12 0.000
23 21:00 70.0 61.7 75 WNW 0 G 6 29.50 999.2 0.00 12 0.000
23 20:00 70.0 61.7 70.0 70.0 75 W 1 G 5 29.50 998.8 0.00 12 0.000
23 19:00 70.0 61.7 75 WNW 1 G 6 29.50 999.0 0.00 12 0.000
23 18:00 70.0 61.7 75 SSW 2 G 6 29.49 998.6 0.00 12 0.000
23 17:00 70.0 61.7 75 S 1 G 4 29.51 999.2 0.00 12 0.000
23 16:00 70.0 61.7 75 SSW 1 G 5 29.52 999.7 0.00 12 0.000
23 15:00 70.0 61.7 75 S 1 G 6 29.55 1000.7 0.00 12 0.000
23 14:00 70.0 61.7 70.0 70.0 75 SSW 2 G 7 29.58 1001.7 0.00 12 0.000
23 13:00 70.0 61.7 75 SW 3 G 9 29.59 1002.2 0.00 12 0.000
23 12:00 70.0 61.7 75 NW 0 G 3 29.61 1002.8 0.00 12 0.000
23 11:00 70.0 61.7 75 SSW 2 G 11 29.63 1003.3 0.00 12 0.000
23 10:00 70.0 61.7 75 SSW 3 G 9 29.65 1004.1 0.00 12 0.000
23 09:00 70.0 61.7 75 S 2 G 9 29.68 1005.2 0.00 12 0.000
23 08:00 70.0 61.7 70.0 70.0 75 SSW 2 G 8 29.68 1005.1 0.00 12 0.000
23 07:00 70.0 61.7 75 SSW 3 G 10 29.70 1005.8 0.00 12 0.000

Data generated by WxSolution Version 1.9.0.6, Build 2017.01.14.